Bellatrix — XUAB4 — position and weather

sailwx.info

Track history (hours):
 
Tides and Currents Weather Stations Pressure Air Temp Water Temp Dewpoint Dewpoint Depression Visibility Wind Speed Wind Dir Waves Ship Positions

Bellatrix

Last reported at 2016-May-01 04:31 UTC. Time now 2016-May-02 12:34 UTC.
Position N 40°56' E 028°57'.

Length 114 m; draft 3.6 m.

Type: Cargo ship. MMSI: 515288000.

Date/timePositionNaut miles runAvg speedWind from/ knotsBaromVisibWave heightAir tempDewpointWater temp
2016-May-01 04:31N 40°56' E 028°57'2 0.5
2016-May-01 00:10N 40°58' E 028°56'5 0.2
2016-Apr-29 22:03N 40°54' E 028°55'152 7.0
2016-Apr-29 00:16N 39°37' E 026°04'  
2016-Apr-22 20:27N 44°21' E 034°30'7 7.3
2016-Apr-22 19:31N 44°25' E 034°38'7 7.4
2016-Apr-22 18:33N 44°29' E 034°46'8 7.6
2016-Apr-22 17:33N 44°33' E 034°55'8 7.5
2016-Apr-22 16:31N 44°37' E 035°04'69 5.8
2016-Apr-22 04:31N 45°13' E 036°28'7 7.1
2016-Apr-22 03:33N 45°19' E 036°33'8 7.5
2016-Apr-22 02:33N 45°24' E 036°41'4 3.8
2016-Apr-22 01:33N 45°28' E 036°38'0 0.0
2016-Apr-22 00:33N 45°28' E 036°38'0 0.0
2016-Apr-21 23:33N 45°28' E 036°38'0 0.0
2016-Apr-21 22:32N 45°28' E 036°38'0 0.0
2016-Apr-21 21:33N 45°28' E 036°38'0 0.0
2016-Apr-21 20:33N 45°28' E 036°38'0 0.0
2016-Apr-21 19:31N 45°28' E 036°38'0 0.0
2016-Apr-21 18:33N 45°28' E 036°38'0 0.0
2016-Apr-21 13:32N 45°28' E 036°38'0 0.0
2016-Apr-21 12:33N 45°28' E 036°38'0 0.0
2016-Apr-21 11:33N 45°28' E 036°38'0 0.0
2016-Apr-21 10:33N 45°28' E 036°38'0 0.0
2016-Apr-21 09:33N 45°28' E 036°38'0 0.0
2016-Apr-21 08:33N 45°28' E 036°38'0 0.0
2016-Apr-21 07:33N 45°28' E 036°38'0 0.0
2016-Apr-21 06:33N 45°28' E 036°38'0 0.0
2016-Apr-21 05:33N 45°28' E 036°38'0 0.0
2016-Apr-21 04:33N 45°28' E 036°38'  
Track history (hours):
 
Tides and Currents Weather Stations Pressure Air Temp Water Temp Dewpoint Dewpoint Depression Visibility Wind Speed Wind Dir Waves Ship Positions

Bellatrix

Last reported at 2016-May-01 04:31 UTC. Time now 2016-May-02 12:34 UTC.
Position N 40°56' E 028°57'.

Length 114 m; draft 3.6 m.

Type: Cargo ship. MMSI: 515288000.

Date/timePositionNaut miles runAvg speedWind from/ knotsBaromVisibWave heightAir tempDewpointWater temp
2016-May-01 04:31N 40°56' E 028°57'2 0.5
2016-May-01 00:10N 40°58' E 028°56'5 0.2
2016-Apr-29 22:03N 40°54' E 028°55'152 7.0
2016-Apr-29 00:16N 39°37' E 026°04'  
2016-Apr-22 20:27N 44°21' E 034°30'7 7.3
2016-Apr-22 19:31N 44°25' E 034°38'7 7.4
2016-Apr-22 18:33N 44°29' E 034°46'8 7.6
2016-Apr-22 17:33N 44°33' E 034°55'8 7.5
2016-Apr-22 16:31N 44°37' E 035°04'69 5.8
2016-Apr-22 04:31N 45°13' E 036°28'7 7.1
2016-Apr-22 03:33N 45°19' E 036°33'8 7.5
2016-Apr-22 02:33N 45°24' E 036°41'4 3.8
2016-Apr-22 01:33N 45°28' E 036°38'0 0.0
2016-Apr-22 00:33N 45°28' E 036°38'0 0.0
2016-Apr-21 23:33N 45°28' E 036°38'0 0.0
2016-Apr-21 22:32N 45°28' E 036°38'0 0.0
2016-Apr-21 21:33N 45°28' E 036°38'0 0.0
2016-Apr-21 20:33N 45°28' E 036°38'0 0.0
2016-Apr-21 19:31N 45°28' E 036°38'0 0.0
2016-Apr-21 18:33N 45°28' E 036°38'0 0.0
2016-Apr-21 13:32N 45°28' E 036°38'0 0.0
2016-Apr-21 12:33N 45°28' E 036°38'0 0.0
2016-Apr-21 11:33N 45°28' E 036°38'0 0.0
2016-Apr-21 10:33N 45°28' E 036°38'0 0.0
2016-Apr-21 09:33N 45°28' E 036°38'0 0.0
2016-Apr-21 08:33N 45°28' E 036°38'0 0.0
2016-Apr-21 07:33N 45°28' E 036°38'0 0.0
2016-Apr-21 06:33N 45°28' E 036°38'0 0.0
2016-Apr-21 05:33N 45°28' E 036°38'0 0.0
2016-Apr-21 04:33N 45°28' E 036°38'  

Dump ship's entire track history